createdAt,value
2023-02-08T00:00:59.532Z,0.80
2023-02-08T00:03:44.958Z,0.70
2023-02-08T00:06:30.366Z,0.70
2023-02-08T00:09:15.752Z,0.70
2023-02-08T00:12:01.316Z,0.70
2023-02-08T00:14:47.169Z,0.70
2023-02-08T00:17:32.554Z,0.70
2023-02-08T00:20:18.714Z,0.70
2023-02-08T00:23:04.464Z,0.60
2023-02-08T00:25:50.304Z,0.70
2023-02-08T00:28:36.445Z,0.70
2023-02-08T00:31:22.375Z,0.70
2023-02-08T00:34:08.040Z,0.60
2023-02-08T00:36:53.834Z,0.70
2023-02-08T00:39:39.570Z,0.60
2023-02-08T00:42:26.725Z,0.60
2023-02-08T00:45:12.532Z,0.60
2023-02-08T00:47:58.185Z,0.60
2023-02-08T00:50:43.967Z,0.60
2023-02-08T00:53:29.575Z,0.60
2023-02-08T00:56:15.691Z,0.50
2023-02-08T00:59:01.345Z,0.50
2023-02-08T01:01:47.029Z,0.50
2023-02-08T01:04:32.873Z,0.50
2023-02-08T01:07:18.590Z,0.50
2023-02-08T01:10:04.884Z,0.50
2023-02-08T01:12:50.640Z,0.50
2023-02-08T01:15:36.167Z,0.50
2023-02-08T01:18:21.928Z,0.50
2023-02-08T01:21:08.379Z,0.50
2023-02-08T01:23:53.875Z,0.50
2023-02-08T01:26:39.439Z,0.50
2023-02-08T01:29:26.096Z,0.50
2023-02-08T01:32:12.696Z,0.40
2023-02-08T01:34:58.066Z,0.40
2023-02-08T01:37:44.302Z,0.40
2023-02-08T01:40:29.585Z,0.40
2023-02-08T01:43:23.580Z,0.40
2023-02-08T01:46:09.122Z,0.30
2023-02-08T01:48:56.880Z,0.30
2023-02-08T01:51:45.623Z,0.40
2023-02-08T01:54:35.139Z,0.40
2023-02-08T01:57:21.086Z,0.40
2023-02-08T02:00:09.985Z,0.40
2023-02-08T02:03:02.372Z,0.40
2023-02-08T02:05:50.074Z,0.40
2023-02-08T02:08:36.414Z,0.40
2023-02-08T02:11:22.011Z,0.40
2023-02-08T02:14:08.228Z,0.30
2023-02-08T02:16:53.763Z,0.40
2023-02-08T02:19:42.239Z,0.30
2023-02-08T02:22:30.780Z,0.30
2023-02-08T02:25:22.253Z,0.30
2023-02-08T02:28:17.082Z,0.30
2023-02-08T02:31:02.886Z,0.30
2023-02-08T02:33:48.583Z,0.30
2023-02-08T02:36:43.593Z,0.20
2023-02-08T02:39:38.184Z,0.30
2023-02-08T02:42:48.200Z,0.20
2023-02-08T02:45:36.528Z,0.20
2023-02-08T02:48:25.402Z,0.20
2023-02-08T02:51:19.927Z,0.20
2023-02-08T02:54:11.513Z,0.20
2023-02-08T02:57:00.234Z,0.20
2023-02-08T02:59:47.021Z,0.20
2023-02-08T03:02:32.660Z,0.20
2023-02-08T03:05:18.110Z,0.10
2023-02-08T03:08:30.418Z,0.10
2023-02-08T03:11:20.012Z,0.10
2023-02-08T03:14:08.350Z,0.00
2023-02-08T03:17:11.272Z,0.10
2023-02-08T03:20:23.487Z,0.10
2023-02-08T03:23:12.240Z,0.10
2023-02-08T03:26:15.929Z,0.10
2023-02-08T03:29:01.635Z,0.10
2023-02-08T03:31:52.219Z,0.10
2023-02-08T03:34:53.310Z,0.10
2023-02-08T03:37:42.643Z,0.10
2023-02-08T03:40:38.353Z,0.10
2023-02-08T03:43:27.143Z,0.10
2023-02-08T03:46:22.096Z,0.00
2023-02-08T03:49:09.756Z,0.10
2023-02-08T03:51:56.629Z,0.10
2023-02-08T03:54:45.584Z,0.10
2023-02-08T03:57:33.300Z,0.10
2023-02-08T04:00:19.458Z,0.10
2023-02-08T04:03:14.261Z,0.10
2023-02-08T04:05:59.835Z,0.00
2023-02-08T04:08:45.607Z,0.00
2023-02-08T04:11:31.365Z,-0.10
2023-02-08T04:14:17.089Z,0.00
2023-02-08T04:17:02.631Z,-0.10
2023-02-08T04:19:48.357Z,0.00
2023-02-08T04:22:33.769Z,0.00
2023-02-08T04:25:19.476Z,-0.10
2023-02-08T04:28:05.200Z,-0.10
2023-02-08T04:30:50.689Z,-0.20
2023-02-08T04:33:36.449Z,-0.20
2023-02-08T04:36:21.587Z,-0.20
2023-02-08T04:39:07.081Z,-0.20
2023-02-08T04:41:52.358Z,-0.10
2023-02-08T04:44:37.654Z,-0.20
2023-02-08T04:47:22.992Z,-0.20
2023-02-08T04:50:08.384Z,-0.20
2023-02-08T04:52:53.937Z,-0.30
2023-02-08T04:55:39.619Z,-0.30
2023-02-08T04:58:25.134Z,-0.30
2023-02-08T05:01:10.976Z,-0.30
2023-02-08T05:03:56.496Z,-0.30
2023-02-08T05:06:41.947Z,-0.30
2023-02-08T05:09:27.339Z,-0.30
2023-02-08T05:12:12.671Z,-0.40
2023-02-08T05:14:58.089Z,-0.40
2023-02-08T05:17:44.054Z,-0.40
2023-02-08T05:20:30.729Z,-0.40
2023-02-08T05:23:15.995Z,-0.50
2023-02-08T05:26:05.212Z,-0.50
2023-02-08T05:28:50.942Z,-0.50
2023-02-08T05:31:36.576Z,-0.50
2023-02-08T05:34:22.267Z,-0.60
2023-02-08T05:37:07.587Z,-0.60
2023-02-08T05:39:52.835Z,-0.60
2023-02-08T05:42:38.595Z,-0.60
2023-02-08T05:45:23.960Z,-0.70
2023-02-08T05:48:09.509Z,-0.60
2023-02-08T05:50:55.507Z,-0.60
2023-02-08T05:53:40.921Z,-0.60
2023-02-08T05:56:27.296Z,-0.70
2023-02-08T05:59:12.618Z,-0.70
2023-02-08T06:01:57.970Z,-0.70
2023-02-08T06:04:43.377Z,-0.80
2023-02-08T06:07:29.782Z,-0.80
2023-02-08T06:10:15.163Z,-0.80
2023-02-08T06:13:01.541Z,-0.80
2023-02-08T06:15:47.103Z,-0.80
2023-02-08T06:18:32.603Z,-0.90
2023-02-08T06:21:17.755Z,-0.80
2023-02-08T06:24:03.946Z,-0.80
2023-02-08T06:26:49.215Z,-0.90
2023-02-08T06:33:57.951Z,-1.00
2023-02-08T06:37:08.485Z,-0.90
2023-02-08T06:39:55.849Z,-0.90
2023-02-08T06:46:36.024Z,-0.80
2023-02-08T06:49:21.483Z,-0.70
2023-02-08T06:52:07.132Z,-0.70
2023-02-08T06:54:52.628Z,-0.70
2023-02-08T06:57:38.058Z,-0.70
2023-02-08T07:00:24.164Z,-0.60
2023-02-08T07:03:09.966Z,-0.60
2023-02-08T07:06:04.477Z,-0.50
2023-02-08T07:08:51.032Z,-0.50
2023-02-08T07:11:36.712Z,-0.40
2023-02-08T07:14:22.475Z,-0.20
2023-02-08T07:17:08.903Z,0.90
2023-02-08T07:19:54.249Z,1.60
2023-02-08T07:22:40.083Z,1.40
2023-02-08T07:25:25.386Z,1.20
2023-02-08T07:28:11.065Z,1.00
2023-02-08T07:30:57.250Z,0.80
2023-02-08T07:33:43.539Z,0.80
2023-02-08T07:36:28.871Z,0.90
2023-02-08T07:39:14.298Z,1.10
2023-02-08T07:41:59.930Z,1.20
2023-02-08T07:44:50.711Z,1.50
2023-02-08T07:47:36.457Z,1.80
2023-02-08T07:50:21.918Z,2.10
2023-02-08T07:53:07.381Z,2.40
2023-02-08T07:55:52.874Z,2.70
2023-02-08T07:58:38.750Z,2.90
2023-02-08T08:01:24.599Z,3.10
2023-02-08T08:04:10.320Z,3.40
2023-02-08T08:06:56.177Z,3.60
2023-02-08T08:09:41.972Z,3.90
2023-02-08T08:12:27.645Z,4.00
2023-02-08T08:15:13.315Z,4.10
2023-02-08T08:17:58.763Z,4.20
2023-02-08T08:20:44.594Z,4.20
2023-02-08T08:23:33.049Z,4.30
2023-02-08T08:26:20.053Z,4.30
2023-02-08T08:29:06.442Z,4.40
2023-02-08T08:31:52.118Z,4.50
2023-02-08T08:34:37.825Z,4.50
2023-02-08T08:37:23.295Z,4.60
2023-02-08T08:40:09.340Z,4.80
2023-02-08T08:42:54.687Z,4.80
2023-02-08T08:45:40.379Z,4.80
2023-02-08T08:48:26.059Z,4.90
2023-02-08T08:51:11.815Z,5.00
2023-02-08T08:53:57.775Z,5.10
2023-02-08T08:56:43.322Z,5.30
2023-02-08T08:59:29.223Z,5.30
2023-02-08T09:02:15.448Z,5.30
2023-02-08T09:05:02.748Z,5.40
2023-02-08T09:07:48.479Z,5.40
2023-02-08T09:10:34.308Z,5.50
2023-02-08T09:13:21.253Z,5.50
2023-02-08T09:16:17.132Z,5.50
2023-02-08T09:19:03.728Z,5.50
2023-02-08T09:21:48.987Z,5.50
2023-02-08T09:24:35.172Z,5.30
2023-02-08T09:27:20.519Z,5.30
2023-02-08T09:30:06.436Z,5.20
2023-02-08T09:32:52.069Z,5.20
2023-02-08T09:35:37.638Z,5.30
2023-02-08T09:38:23.034Z,5.30
2023-02-08T09:41:21.051Z,5.10
2023-02-08T09:44:22.068Z,5.00
2023-02-08T09:47:08.035Z,4.80
2023-02-08T09:49:58.897Z,4.90
2023-02-08T09:52:47.531Z,4.90
2023-02-08T09:55:42.658Z,4.80
2023-02-08T09:58:34.371Z,5.00
2023-02-08T10:01:25.109Z,5.20
2023-02-08T10:04:29.341Z,5.20
2023-02-08T10:07:15.111Z,4.80
2023-02-08T10:10:04.701Z,4.80
2023-02-08T10:13:00.187Z,4.90
2023-02-08T10:15:46.205Z,5.00
2023-02-08T10:18:31.898Z,4.90
2023-02-08T10:21:17.330Z,5.10
2023-02-08T10:24:23.203Z,5.00
2023-02-08T10:27:24.026Z,5.20
2023-02-08T10:30:29.919Z,5.40
2023-02-08T10:33:26.559Z,5.50
2023-02-08T10:36:18.524Z,5.30
2023-02-08T10:39:10.168Z,5.50
2023-02-08T10:41:55.791Z,5.40
2023-02-08T10:44:45.098Z,5.40
2023-02-08T10:47:49.036Z,5.20
2023-02-08T10:50:36.652Z,5.30
2023-02-08T10:53:24.399Z,5.20
2023-02-08T10:56:27.020Z,5.10
2023-02-08T10:59:22.875Z,5.00
2023-02-08T11:02:20.512Z,5.00
2023-02-08T11:05:05.994Z,5.30
2023-02-08T11:08:11.955Z,5.50
2023-02-08T11:11:05.706Z,5.40
2023-02-08T11:13:51.474Z,5.50
2023-02-08T11:16:38.366Z,5.50
2023-02-08T11:19:23.995Z,5.50
2023-02-08T11:22:15.063Z,5.40
2023-02-08T11:25:02.252Z,5.60
2023-02-08T11:27:48.740Z,5.40
2023-02-08T11:30:34.693Z,5.40
2023-02-08T11:33:23.322Z,5.40
2023-02-08T11:36:12.895Z,5.60
2023-02-08T11:39:00.714Z,5.60
2023-02-08T11:41:49.245Z,5.70
2023-02-08T11:44:37.186Z,5.70
2023-02-08T11:47:26.858Z,5.60
2023-02-08T11:50:21.841Z,5.60
2023-02-08T11:53:21.199Z,5.80
2023-02-08T11:56:19.433Z,5.90
2023-02-08T11:59:17.146Z,5.90
2023-02-08T12:02:20.426Z,5.80
2023-02-08T12:05:28.191Z,5.80
2023-02-08T12:08:26.987Z,6.00
2023-02-08T12:11:21.681Z,6.10
2023-02-08T12:14:27.333Z,6.20
2023-02-08T12:17:34.075Z,6.20
2023-02-08T12:20:32.266Z,6.30
2023-02-08T12:23:30.118Z,6.50
2023-02-08T12:26:23.531Z,6.30
2023-02-08T12:29:35.755Z,6.20
2023-02-08T12:32:37.599Z,6.10
2023-02-08T12:36:01.527Z,6.30
2023-02-08T12:39:19.092Z,6.30
2023-02-08T12:42:20.606Z,6.10
2023-02-08T12:45:17.548Z,6.00
2023-02-08T12:48:18.602Z,6.20
2023-02-08T12:51:16.375Z,6.00
2023-02-08T12:54:09.934Z,5.90
2023-02-08T12:57:01.924Z,6.00
2023-02-08T12:59:57.315Z,6.00
2023-02-08T13:03:09.180Z,5.90
2023-02-08T13:06:02.130Z,5.80
2023-02-08T13:09:02.746Z,6.00
2023-02-08T13:11:51.334Z,6.10
2023-02-08T13:14:37.088Z,6.20
2023-02-08T13:17:24.691Z,6.20
2023-02-08T13:20:22.627Z,6.30
2023-02-08T13:23:14.198Z,6.00
2023-02-08T13:26:01.946Z,6.10
2023-02-08T13:28:48.692Z,6.10
2023-02-08T13:31:36.155Z,6.00
2023-02-08T13:34:21.867Z,5.90
2023-02-08T13:37:24.718Z,6.00
2023-02-08T13:40:27.966Z,5.90
2023-02-08T13:43:34.116Z,5.90
2023-02-08T13:46:21.880Z,6.10
2023-02-08T13:49:07.439Z,6.00
2023-02-08T13:51:54.155Z,6.10
2023-02-08T13:54:39.385Z,5.90
2023-02-08T13:57:57.340Z,5.90
2023-02-08T14:00:55.025Z,5.90
2023-02-08T14:03:40.838Z,6.00
2023-02-08T14:06:29.469Z,6.00
2023-02-08T14:09:23.840Z,5.30
2023-02-08T14:12:18.342Z,6.20
2023-02-08T14:15:15.909Z,6.20
2023-02-08T14:18:01.737Z,6.20
2023-02-08T14:20:58.272Z,6.20
2023-02-08T14:23:44.529Z,6.20
2023-02-08T14:26:30.099Z,5.90
2023-02-08T14:29:22.857Z,5.90
2023-02-08T14:32:08.586Z,5.80
2023-02-08T14:35:07.991Z,6.00
2023-02-08T14:38:12.472Z,6.00
2023-02-08T14:40:58.538Z,6.00
2023-02-08T14:43:48.726Z,5.90
2023-02-08T14:46:37.380Z,5.80
2023-02-08T14:49:23.273Z,5.70
2023-02-08T14:52:19.912Z,5.60
2023-02-08T14:55:13.478Z,5.50
2023-02-08T14:58:01.006Z,5.50
2023-02-08T15:00:50.741Z,5.50
2023-02-08T15:03:36.572Z,5.40
2023-02-08T15:06:21.982Z,5.40
2023-02-08T15:09:15.392Z,5.40
2023-02-08T15:12:07.030Z,5.30
2023-02-08T15:14:55.363Z,5.30
2023-02-08T15:17:43.708Z,5.20
2023-02-08T15:20:31.166Z,5.40
2023-02-08T15:23:21.352Z,5.40
2023-02-08T15:26:19.684Z,5.30
2023-02-08T15:29:16.328Z,5.40
2023-02-08T15:32:01.940Z,5.50
2023-02-08T15:34:54.631Z,5.40
2023-02-08T15:37:43.967Z,5.20
2023-02-08T15:40:30.646Z,5.20
2023-02-08T15:43:16.235Z,5.40
2023-02-08T15:46:03.771Z,5.20
2023-02-08T15:48:49.978Z,5.10
2023-02-08T15:51:35.731Z,5.10
2023-02-08T15:54:21.412Z,5.10
2023-02-08T15:57:18.932Z,5.10
2023-02-08T16:00:14.314Z,5.00
2023-02-08T16:03:01.682Z,4.90
2023-02-08T16:05:52.013Z,4.90
2023-02-08T16:08:40.218Z,4.90
2023-02-08T16:11:31.122Z,4.70
2023-02-08T16:14:18.021Z,4.80
2023-02-08T16:17:04.284Z,4.70
2023-02-08T16:19:52.698Z,4.80
2023-02-08T16:22:38.506Z,4.70
2023-02-08T16:25:35.384Z,4.50
2023-02-08T16:28:47.318Z,4.50
2023-02-08T16:31:35.318Z,4.50
2023-02-08T16:34:23.128Z,4.40
2023-02-08T16:37:23.487Z,4.50
2023-02-08T16:40:27.766Z,4.50
2023-02-08T16:43:32.330Z,4.40
2023-02-08T16:46:22.357Z,4.30
2023-02-08T16:49:07.818Z,4.30
2023-02-08T16:51:57.348Z,4.40
2023-02-08T16:54:42.694Z,4.30
2023-02-08T16:57:39.022Z,4.20
2023-02-08T17:00:24.603Z,4.20
2023-02-08T17:03:09.998Z,4.20
2023-02-08T17:05:55.564Z,4.10
2023-02-08T17:08:40.821Z,3.90
2023-02-08T17:11:26.332Z,3.90
2023-02-08T17:14:11.861Z,3.90
2023-02-08T17:16:57.541Z,3.80
2023-02-08T17:19:44.516Z,3.80
2023-02-08T17:22:30.203Z,3.60
2023-02-08T17:25:19.154Z,3.70
2023-02-08T17:28:06.299Z,3.60
2023-02-08T17:30:53.168Z,3.50
2023-02-08T17:33:40.408Z,3.50
2023-02-08T17:36:26.173Z,3.50
2023-02-08T17:39:11.745Z,3.50
2023-02-08T17:41:57.774Z,3.50
2023-02-08T17:44:43.214Z,3.50
2023-02-08T17:47:28.659Z,3.50
2023-02-08T17:50:14.945Z,3.40
2023-02-08T17:53:03.982Z,3.50
2023-02-08T17:55:49.493Z,3.40
2023-02-08T17:58:41.290Z,3.40
2023-02-08T18:01:27.104Z,3.40
2023-02-08T18:04:13.324Z,3.40
2023-02-08T18:06:58.851Z,3.30
2023-02-08T18:09:44.309Z,3.30
2023-02-08T18:12:29.629Z,3.30
2023-02-08T18:15:17.278Z,3.30
2023-02-08T18:18:03.238Z,3.30
2023-02-08T18:20:48.604Z,3.30
2023-02-08T18:23:34.140Z,3.30
2023-02-08T18:26:20.892Z,3.30
2023-02-08T18:29:06.547Z,3.30
2023-02-08T18:31:52.557Z,3.30
2023-02-08T18:34:39.583Z,3.30
2023-02-08T18:37:25.290Z,3.30
2023-02-08T18:40:11.316Z,3.30
2023-02-08T18:42:56.611Z,3.20
2023-02-08T18:45:42.452Z,3.10
2023-02-08T18:48:27.883Z,3.10
2023-02-08T18:51:14.742Z,3.00
2023-02-08T18:54:00.624Z,3.00
2023-02-08T18:56:46.957Z,2.90
2023-02-08T18:59:33.374Z,2.90
2023-02-08T19:02:21.148Z,2.90
2023-02-08T19:05:06.770Z,2.90
2023-02-08T19:07:52.363Z,2.90
2023-02-08T19:10:41.610Z,2.90
2023-02-08T19:13:26.942Z,2.90
2023-02-08T19:16:12.958Z,2.80
2023-02-08T19:19:02.227Z,2.80
2023-02-08T19:21:47.525Z,2.80
2023-02-08T19:24:32.992Z,2.80
2023-02-08T19:27:18.372Z,2.80
2023-02-08T19:30:04.415Z,2.70
2023-02-08T19:32:49.797Z,2.80
2023-02-08T19:35:38.991Z,2.70
2023-02-08T19:38:24.374Z,2.70
2023-02-08T19:41:13.609Z,2.70
2023-02-08T19:43:59.249Z,2.60
2023-02-08T19:46:49.039Z,2.70
2023-02-08T19:49:34.519Z,2.60
2023-02-08T19:52:20.802Z,2.50
2023-02-08T19:55:06.235Z,2.50
2023-02-08T19:57:52.018Z,2.50
2023-02-08T20:00:37.548Z,2.50
2023-02-08T20:03:23.893Z,2.50
2023-02-08T20:06:15.655Z,2.50
2023-02-08T20:09:01.635Z,2.50
2023-02-08T20:11:57.710Z,2.50
2023-02-08T20:14:43.500Z,2.50
2023-02-08T20:17:29.180Z,2.50
2023-02-08T20:20:14.916Z,2.60
2023-02-08T20:23:02.956Z,2.70
2023-02-08T20:25:49.764Z,2.70
2023-02-08T20:28:36.022Z,2.70
2023-02-08T20:31:29.021Z,2.70
2023-02-08T20:34:15.394Z,2.70
2023-02-08T20:37:08.500Z,2.60
2023-02-08T20:39:54.201Z,2.70
2023-02-08T20:42:39.714Z,2.70
2023-02-08T20:45:25.506Z,2.70
2023-02-08T20:48:10.864Z,2.70
2023-02-08T20:51:04.257Z,2.70
2023-02-08T20:53:50.035Z,2.70
2023-02-08T20:56:35.696Z,2.60
2023-02-08T20:59:21.904Z,2.60
2023-02-08T21:02:08.617Z,2.60
2023-02-08T21:04:54.025Z,2.70
2023-02-08T21:07:40.365Z,2.60
2023-02-08T21:10:26.163Z,2.60
2023-02-08T21:13:11.438Z,2.60
2023-02-08T21:15:57.361Z,2.50
2023-02-08T21:18:45.360Z,2.50
2023-02-08T21:21:30.860Z,2.60
2023-02-08T21:24:16.208Z,2.50
2023-02-08T21:27:01.920Z,2.50
2023-02-08T21:29:51.379Z,2.50
2023-02-08T21:32:36.849Z,2.50
2023-02-08T21:35:22.588Z,2.40
2023-02-08T21:38:08.218Z,2.40
2023-02-08T21:40:54.120Z,2.30
2023-02-08T21:43:39.702Z,2.30
2023-02-08T21:46:25.655Z,2.20
2023-02-08T21:49:29.717Z,2.20
2023-02-08T21:52:34.076Z,2.20
2023-02-08T21:55:19.531Z,2.20
2023-02-08T21:58:05.153Z,2.20
2023-02-08T22:00:51.426Z,2.20
2023-02-08T22:03:36.932Z,2.20
2023-02-08T22:06:41.493Z,2.20
2023-02-08T22:09:28.539Z,2.20
2023-02-08T22:12:15.692Z,2.10
2023-02-08T22:15:19.112Z,2.10
2023-02-08T22:18:04.891Z,2.10
2023-02-08T22:20:54.167Z,2.10
2023-02-08T22:23:39.768Z,2.10
2023-02-08T22:26:25.544Z,2.10
2023-02-08T22:29:10.781Z,2.20
2023-02-08T22:31:56.575Z,2.20
2023-02-08T22:34:42.740Z,2.20
2023-02-08T22:37:28.269Z,2.20
2023-02-08T22:40:13.985Z,2.20
2023-02-08T22:42:59.386Z,2.20
2023-02-08T22:45:45.005Z,2.20
2023-02-08T22:48:30.767Z,2.20
2023-02-08T22:51:17.249Z,2.30
2023-02-08T22:54:03.049Z,2.20
2023-02-08T22:56:48.641Z,2.30
2023-02-08T22:59:33.978Z,2.30
2023-02-08T23:02:19.725Z,2.30
2023-02-08T23:05:05.656Z,2.30
2023-02-08T23:07:51.177Z,2.40
2023-02-08T23:10:36.880Z,2.40
2023-02-08T23:13:22.142Z,2.40
2023-02-08T23:16:11.042Z,2.40
2023-02-08T23:18:56.472Z,2.40
2023-02-08T23:21:42.204Z,2.40
2023-02-08T23:24:27.782Z,2.40
2023-02-08T23:27:13.268Z,2.40
2023-02-08T23:29:58.961Z,2.40
2023-02-08T23:32:44.307Z,2.40
2023-02-08T23:35:29.957Z,2.40
2023-02-08T23:38:16.202Z,2.40
2023-02-08T23:41:02.923Z,2.40
2023-02-08T23:43:49.946Z,2.40
2023-02-08T23:46:35.317Z,2.40
2023-02-08T23:49:21.140Z,2.40
2023-02-08T23:52:06.900Z,2.30
2023-02-08T23:54:52.604Z,2.30
2023-02-08T23:57:38.573Z,2.40
